createdAt,value
2022-12-19T00:00:44.431Z,45.70
2022-12-19T00:03:13.057Z,38.50
2022-12-19T00:05:43.580Z,46.80
2022-12-19T00:08:18.138Z,33.88
2022-12-19T00:10:56.079Z,40.20
2022-12-19T00:13:25.239Z,28.13
2022-12-19T00:15:53.933Z,44.92
2022-12-19T00:18:22.766Z,31.95
2022-12-19T00:21:00.760Z,49.65
2022-12-19T00:23:31.800Z,34.55
2022-12-19T00:26:15.989Z,35.60
2022-12-19T00:28:46.452Z,36.33
2022-12-19T00:31:17.308Z,44.30
2022-12-19T00:33:49.415Z,46.47
2022-12-19T00:36:22.907Z,40.30
2022-12-19T00:38:53.263Z,43.08
2022-12-19T00:41:24.161Z,45.72
2022-12-19T00:43:55.134Z,42.90
2022-12-19T00:46:24.219Z,44.20
2022-12-19T00:48:52.828Z,38.17
2022-12-19T00:51:25.115Z,55.08
2022-12-19T00:53:55.634Z,41.28
2022-12-19T00:56:27.432Z,54.20
2022-12-19T00:58:56.674Z,42.58
2022-12-19T01:01:28.514Z,42.97
2022-12-19T01:04:27.220Z,40.05
2022-12-19T01:06:49.472Z,45.15
2022-12-19T01:09:18.047Z,39.92
2022-12-19T01:12:04.430Z,46.90
2022-12-19T01:14:32.783Z,38.25
2022-12-19T01:17:02.514Z,48.63
2022-12-19T01:19:30.766Z,39.85
2022-12-19T01:22:00.386Z,48.97
2022-12-19T01:24:29.687Z,46.67
2022-12-19T01:26:58.245Z,39.85
2022-12-19T01:29:28.603Z,38.45
2022-12-19T01:31:56.844Z,47.92
2022-12-19T01:34:25.550Z,37.83
2022-12-19T01:36:54.141Z,42.75
2022-12-19T01:39:24.867Z,41.70
2022-12-19T01:41:56.238Z,48.53
2022-12-19T01:44:25.715Z,43.22
2022-12-19T01:46:58.159Z,49.25
2022-12-19T01:49:32.519Z,37.85
2022-12-19T01:54:36.927Z,28.73
2022-12-19T01:57:11.855Z,38.00
2022-12-19T01:59:45.385Z,35.97
2022-12-19T02:02:20.671Z,43.83
2022-12-19T02:04:49.649Z,41.72
2022-12-19T02:07:21.126Z,39.97
2022-12-19T02:09:57.827Z,41.55
2022-12-19T02:12:39.004Z,39.97
2022-12-19T02:15:11.994Z,38.05
2022-12-19T02:17:57.636Z,33.13
2022-12-19T02:21:21.304Z,28.42
2022-12-19T02:24:37.749Z,36.38
2022-12-19T02:27:46.702Z,40.33
2022-12-19T02:30:17.299Z,38.65
2022-12-19T02:33:01.846Z,43.72
2022-12-19T02:38:15.900Z,23.65
2022-12-19T02:40:51.905Z,35.85
2022-12-19T02:43:28.154Z,38.40
2022-12-19T02:45:58.777Z,38.90
2022-12-19T02:48:29.542Z,45.70
2022-12-19T02:50:59.619Z,49.45
2022-12-19T02:53:27.882Z,58.28
2022-12-19T02:56:23.063Z,42.80
2022-12-19T03:01:48.688Z,25.58
2022-12-19T03:04:36.854Z,29.60
2022-12-19T03:07:19.138Z,30.00
2022-12-19T03:09:57.946Z,38.50
2022-12-19T03:12:33.909Z,42.85
2022-12-19T03:15:03.748Z,39.78
2022-12-19T03:17:37.602Z,45.00
2022-12-19T03:20:17.437Z,35.65
2022-12-19T03:22:46.058Z,33.95
2022-12-19T03:25:14.784Z,43.45
2022-12-19T03:27:44.480Z,42.97
2022-12-19T03:30:14.984Z,39.33
2022-12-19T03:32:47.605Z,44.58
2022-12-19T03:35:21.617Z,38.17
2022-12-19T03:37:53.672Z,57.63
2022-12-19T03:40:26.121Z,48.60
2022-12-19T03:43:11.385Z,46.90
2022-12-19T03:45:49.614Z,64.30
2022-12-19T03:48:23.466Z,53.15
2022-12-19T03:51:04.618Z,50.58
2022-12-19T03:53:58.255Z,66.00
2022-12-19T03:56:37.004Z,49.53
2022-12-19T03:59:10.963Z,39.55
2022-12-19T04:01:41.175Z,46.92
2022-12-19T04:04:11.044Z,59.58
2022-12-19T04:06:44.018Z,53.55
2022-12-19T04:09:16.733Z,54.55
2022-12-19T04:11:54.251Z,60.70
2022-12-19T04:14:29.800Z,50.90
2022-12-19T04:17:08.253Z,50.80
2022-12-19T04:19:43.771Z,43.90
2022-12-19T04:22:19.335Z,56.08
2022-12-19T04:24:49.973Z,40.92
2022-12-19T04:27:19.937Z,61.35
2022-12-19T04:29:49.445Z,47.30
2022-12-19T04:32:17.936Z,52.00
2022-12-19T04:34:46.467Z,57.78
2022-12-19T04:37:16.199Z,42.90
2022-12-19T04:39:47.172Z,49.85
2022-12-19T04:42:15.731Z,50.92
2022-12-19T04:44:44.324Z,66.28
2022-12-19T04:47:12.984Z,57.67
2022-12-19T04:49:41.468Z,44.08
2022-12-19T04:52:09.783Z,58.00
2022-12-19T04:54:39.383Z,53.30
2022-12-19T04:57:08.077Z,58.72
2022-12-19T04:59:36.573Z,61.88
2022-12-19T05:02:07.908Z,60.15
2022-12-19T05:04:36.286Z,53.38
2022-12-19T05:07:04.837Z,46.42
2022-12-19T05:09:34.200Z,38.80
2022-12-19T05:12:03.787Z,46.53
2022-12-19T05:14:32.025Z,42.38
2022-12-19T05:17:01.566Z,61.20
2022-12-19T05:19:30.447Z,56.90
2022-12-19T05:21:59.424Z,53.20
2022-12-19T05:24:28.364Z,40.22
2022-12-19T05:26:56.881Z,41.25
2022-12-19T05:29:26.545Z,51.30
2022-12-19T05:31:55.104Z,54.55
2022-12-19T05:34:24.630Z,62.97
2022-12-19T05:36:53.163Z,47.45
2022-12-19T05:39:21.718Z,64.07
2022-12-19T05:41:50.266Z,55.70
2022-12-19T05:44:18.832Z,54.00
2022-12-19T05:46:48.544Z,62.97
2022-12-19T05:49:16.958Z,53.42
2022-12-19T05:51:48.335Z,41.20
2022-12-19T05:54:16.973Z,46.60
2022-12-19T05:56:45.842Z,45.92
2022-12-19T05:59:14.506Z,52.13
2022-12-19T06:01:43.113Z,44.70
2022-12-19T06:04:12.818Z,49.60
2022-12-19T06:06:41.715Z,54.25
2022-12-19T06:09:10.320Z,41.28
2022-12-19T06:11:38.862Z,43.90
2022-12-19T06:14:07.841Z,43.55
2022-12-19T06:16:36.416Z,38.47
2022-12-19T06:19:05.071Z,46.10
2022-12-19T06:21:34.741Z,44.08
2022-12-19T06:24:03.335Z,42.00
2022-12-19T06:26:31.963Z,41.42
2022-12-19T06:29:00.590Z,40.25
2022-12-19T06:31:29.300Z,39.10
2022-12-19T06:33:58.035Z,46.88
2022-12-19T06:36:28.988Z,46.35
2022-12-19T06:38:59.895Z,40.55
2022-12-19T06:41:46.604Z,41.92
2022-12-19T06:44:18.087Z,37.95
2022-12-19T06:46:46.809Z,43.78
2022-12-19T06:49:15.769Z,46.72
2022-12-19T06:51:44.617Z,41.63
2022-12-19T06:54:15.882Z,48.38
2022-12-19T06:56:45.286Z,50.35
2022-12-19T06:59:16.199Z,45.72
2022-12-19T07:02:06.728Z,38.80
2022-12-19T07:04:41.544Z,45.95
2022-12-19T07:07:10.279Z,49.28
2022-12-19T07:09:40.052Z,44.67
2022-12-19T07:12:09.391Z,44.05
2022-12-19T07:14:38.166Z,41.28
2022-12-19T07:17:07.259Z,47.60
2022-12-19T07:19:37.098Z,41.15
2022-12-19T07:22:06.488Z,49.25
2022-12-19T07:24:36.949Z,47.50
2022-12-19T07:27:09.768Z,37.70
2022-12-19T07:29:38.090Z,49.88
2022-12-19T07:32:06.823Z,52.03
2022-12-19T07:34:35.397Z,44.85
2022-12-19T07:37:03.594Z,40.05
2022-12-19T07:39:32.205Z,48.08
2022-12-19T07:42:00.780Z,39.40
2022-12-19T07:44:38.577Z,52.58
2022-12-19T07:47:09.939Z,51.38
2022-12-19T07:49:38.274Z,35.75
2022-12-19T07:52:08.347Z,44.95
2022-12-19T07:54:37.042Z,38.97
2022-12-19T07:57:05.800Z,36.28
2022-12-19T07:59:38.826Z,45.30
2022-12-19T08:02:09.140Z,47.20
2022-12-19T08:04:37.584Z,48.40
2022-12-19T08:07:06.175Z,47.00
2022-12-19T08:09:34.764Z,49.33
2022-12-19T08:12:04.256Z,39.28
2022-12-19T08:14:32.635Z,52.60
2022-12-19T08:19:51.530Z,57.05
2022-12-19T08:22:20.155Z,51.13
2022-12-19T08:24:48.615Z,46.25
2022-12-19T08:27:18.009Z,50.25
2022-12-19T08:29:47.549Z,50.30
2022-12-19T08:32:21.166Z,45.55
2022-12-19T08:34:52.042Z,44.72
2022-12-19T08:37:20.597Z,59.47
2022-12-19T08:39:48.800Z,47.88
2022-12-19T08:42:17.526Z,50.80
2022-12-19T08:44:45.844Z,60.78
2022-12-19T08:47:14.631Z,43.03
2022-12-19T08:49:43.180Z,61.13
2022-12-19T08:52:12.937Z,52.67
2022-12-19T08:54:41.553Z,49.10
2022-12-19T08:57:10.811Z,57.22
2022-12-19T08:59:39.417Z,52.42
2022-12-19T09:02:10.570Z,61.80
2022-12-19T09:06:05.128Z,48.35
2022-12-19T09:07:29.174Z,51.95
2022-12-19T09:09:57.360Z,51.97
2022-12-19T09:12:25.858Z,49.60
2022-12-19T09:14:54.413Z,41.58
2022-12-19T09:17:22.935Z,53.10
2022-12-19T09:19:51.772Z,42.88
2022-12-19T09:22:21.035Z,49.75
2022-12-19T09:24:57.144Z,50.17
2022-12-19T09:27:25.536Z,52.03
2022-12-19T09:29:54.125Z,52.42
2022-12-19T09:32:22.614Z,46.83
2022-12-19T09:34:51.173Z,59.60
2022-12-19T09:37:19.957Z,63.45
2022-12-19T09:39:49.349Z,50.38
2022-12-19T09:42:47.838Z,52.63
2022-12-19T09:45:33.632Z,52.47
2022-12-19T09:48:03.069Z,50.88
2022-12-19T09:50:52.966Z,45.05
2022-12-19T09:53:29.068Z,45.83
2022-12-19T09:56:00.991Z,48.85
2022-12-19T09:58:42.256Z,51.05
2022-12-19T10:01:22.385Z,49.72
2022-12-19T10:04:02.253Z,49.60
2022-12-19T10:07:20.439Z,47.72
2022-12-19T10:10:57.290Z,45.95
2022-12-19T10:12:44.384Z,40.90
2022-12-19T10:15:26.912Z,40.10
2022-12-19T10:18:26.437Z,56.90
2022-12-19T10:21:05.968Z,47.83
2022-12-19T10:24:21.201Z,46.67
2022-12-19T10:26:53.624Z,48.05
2022-12-19T10:29:49.672Z,42.20
2022-12-19T10:32:31.352Z,47.97
2022-12-19T10:34:59.924Z,45.75
2022-12-19T10:37:40.971Z,37.38
2022-12-19T10:40:27.943Z,40.83
2022-12-19T10:43:01.380Z,38.70
2022-12-19T10:45:44.139Z,56.17
2022-12-19T10:48:27.730Z,72.70
2022-12-19T10:51:00.669Z,52.27
2022-12-19T10:53:35.379Z,61.78
2022-12-19T10:56:13.777Z,61.25
2022-12-19T10:58:45.747Z,51.17
2022-12-19T11:01:16.930Z,41.83
2022-12-19T11:03:52.521Z,42.50
2022-12-19T11:06:51.115Z,45.42
2022-12-19T11:09:29.943Z,41.58
2022-12-19T11:15:49.692Z,47.65
2022-12-19T11:20:21.566Z,39.38
2022-12-19T11:26:10.230Z,44.60
2022-12-19T11:29:30.549Z,39.25
2022-12-19T11:29:39.997Z,40.92
2022-12-19T11:30:06.585Z,43.15
2022-12-19T11:32:43.075Z,32.83
2022-12-19T11:35:24.491Z,39.30
2022-12-19T11:37:58.019Z,45.40
2022-12-19T11:40:37.987Z,53.75
2022-12-19T11:46:19.447Z,58.45
2022-12-19T11:48:54.710Z,45.85
2022-12-19T11:51:29.122Z,49.72
2022-12-19T11:56:34.704Z,63.20
2022-12-19T11:59:13.328Z,70.68
2022-12-19T12:01:53.465Z,51.63
2022-12-19T12:05:23.707Z,56.08
2022-12-19T12:08:57.660Z,80.05
2022-12-19T12:20:11.238Z,80.20
2022-12-19T12:23:05.699Z,42.00
2022-12-19T12:23:23.455Z,40.85
2022-12-19T12:31:21.921Z,37.70
2022-12-19T12:31:41.204Z,52.40
2022-12-19T12:31:43.273Z,40.03
2022-12-19T12:31:46.928Z,44.10
2022-12-19T12:38:45.850Z,43.53
2022-12-19T12:41:45.378Z,50.38
2022-12-19T12:44:14.798Z,41.55
2022-12-19T12:46:49.512Z,40.35
2022-12-19T12:49:36.952Z,46.70
2022-12-19T12:52:09.016Z,42.58
2022-12-19T12:54:43.172Z,37.58
2022-12-19T12:57:22.131Z,34.55
2022-12-19T13:00:27.965Z,44.35
2022-12-19T13:03:04.978Z,41.80
2022-12-19T13:05:53.769Z,45.90
2022-12-19T13:08:36.229Z,39.13
2022-12-19T13:11:07.496Z,41.47
2022-12-19T13:13:55.116Z,40.05
2022-12-19T13:16:54.516Z,36.05
2022-12-19T13:19:28.687Z,39.08
2022-12-19T13:24:51.043Z,34.90
2022-12-19T13:27:50.431Z,52.72
2022-12-19T13:30:21.383Z,45.55
2022-12-19T13:33:11.091Z,53.40
2022-12-19T13:36:06.357Z,48.00
2022-12-19T13:39:52.265Z,44.70
2022-12-19T13:41:47.215Z,41.95
2022-12-19T13:44:19.467Z,47.88
2022-12-19T13:46:48.997Z,37.78
2022-12-19T13:49:27.528Z,45.00
2022-12-19T13:52:00.072Z,48.13
2022-12-19T13:54:32.824Z,44.05
2022-12-19T13:57:09.066Z,44.05
2022-12-19T13:59:40.754Z,49.38
2022-12-19T14:02:45.278Z,47.97
2022-12-19T14:05:34.125Z,38.00
2022-12-19T14:08:21.685Z,51.78
2022-12-19T14:11:33.672Z,39.00
2022-12-19T14:14:12.720Z,48.50
2022-12-19T14:19:23.726Z,28.92
2022-12-19T14:22:05.491Z,41.65
2022-12-19T14:24:41.520Z,43.15
2022-12-19T14:28:24.225Z,46.30
2022-12-19T14:30:30.271Z,42.75
2022-12-19T14:33:39.694Z,38.38
2022-12-19T14:36:11.293Z,44.55
2022-12-19T14:39:21.976Z,48.78
2022-12-19T14:42:02.469Z,36.17
2022-12-19T14:54:02.598Z,46.55
2022-12-19T14:54:16.319Z,45.78
2022-12-19T14:54:22.085Z,44.25
2022-12-19T14:54:37.844Z,45.10
2022-12-19T14:59:05.336Z,49.00
2022-12-19T15:01:36.705Z,45.47
2022-12-19T15:04:48.112Z,47.72
2022-12-19T15:07:12.136Z,42.60
2022-12-19T15:11:06.383Z,40.13
2022-12-19T15:14:52.403Z,44.70
2022-12-19T15:16:07.320Z,47.13
2022-12-19T15:18:41.296Z,46.15
2022-12-19T15:21:13.981Z,53.92
2022-12-19T15:23:44.669Z,59.72
2022-12-19T15:26:16.773Z,54.35
2022-12-19T15:28:50.634Z,55.85
2022-12-19T15:31:29.856Z,51.80
2022-12-19T15:36:47.616Z,45.72
2022-12-19T15:39:16.158Z,44.22
2022-12-19T15:41:46.566Z,54.90
2022-12-19T15:44:23.145Z,55.15
2022-12-19T15:46:51.659Z,52.17
2022-12-19T15:49:21.502Z,61.67
2022-12-19T15:51:51.059Z,47.50
2022-12-19T15:54:47.849Z,56.85
2022-12-19T15:57:17.570Z,45.95
2022-12-19T15:59:47.545Z,38.25
2022-12-19T16:02:22.959Z,37.83
2022-12-19T16:04:56.921Z,47.30
2022-12-19T16:07:30.852Z,42.78
2022-12-19T16:09:59.349Z,44.75
2022-12-19T16:12:33.713Z,46.47
2022-12-19T16:15:04.934Z,41.95
2022-12-19T16:17:34.245Z,46.88
2022-12-19T16:20:02.511Z,45.53
2022-12-19T16:22:31.623Z,45.70
2022-12-19T16:25:00.352Z,44.72
2022-12-19T16:27:31.611Z,55.50
2022-12-19T16:30:11.104Z,65.22
2022-12-19T16:32:42.830Z,52.88
2022-12-19T16:35:23.926Z,51.25
2022-12-19T16:38:03.033Z,50.90
2022-12-19T16:40:31.599Z,78.82
2022-12-19T16:43:06.037Z,55.28
2022-12-19T16:48:04.109Z,35.38
2022-12-19T16:50:33.286Z,40.30
2022-12-19T16:53:01.826Z,42.78
2022-12-19T16:55:30.442Z,51.95
2022-12-19T16:57:58.978Z,54.35
2022-12-19T17:00:27.695Z,48.28
2022-12-19T17:03:04.504Z,41.92
2022-12-19T17:05:35.213Z,42.75
2022-12-19T17:08:03.910Z,46.35
2022-12-19T17:10:34.191Z,54.17
2022-12-19T17:13:04.487Z,49.30
2022-12-19T17:15:36.765Z,50.70
2022-12-19T17:18:13.451Z,50.20
2022-12-19T17:20:45.184Z,45.20
2022-12-19T17:23:16.905Z,46.85
2022-12-19T17:25:45.909Z,50.50
2022-12-19T17:28:14.987Z,53.67
2022-12-19T17:30:49.210Z,52.95
2022-12-19T17:33:22.152Z,45.13
2022-12-19T17:35:51.001Z,43.55
2022-12-19T17:38:19.913Z,48.03
2022-12-19T17:40:48.548Z,38.78
2022-12-19T17:43:17.942Z,44.00
2022-12-19T17:45:46.922Z,48.88
2022-12-19T17:48:27.395Z,41.50
2022-12-19T17:50:56.453Z,47.78
2022-12-19T17:53:25.258Z,53.33
2022-12-19T17:55:53.897Z,98.07
2022-12-19T17:58:22.596Z,133.23
2022-12-19T18:00:52.408Z,187.02
2022-12-19T18:03:24.680Z,167.23
2022-12-19T18:05:55.624Z,94.85
2022-12-19T18:08:28.374Z,59.65
2022-12-19T18:11:01.269Z,51.05
2022-12-19T18:13:32.545Z,55.22
2022-12-19T18:16:03.170Z,49.83
2022-12-19T18:18:36.280Z,60.88
2022-12-19T18:21:05.378Z,41.30
2022-12-19T18:23:33.959Z,50.53
2022-12-19T18:26:03.126Z,40.60
2022-12-19T18:28:31.714Z,60.63
2022-12-19T18:31:04.653Z,47.78
2022-12-19T18:33:40.261Z,48.97
2022-12-19T18:36:16.624Z,49.22
2022-12-19T18:38:45.229Z,50.05
2022-12-19T18:41:14.016Z,49.13
2022-12-19T18:43:42.866Z,44.28
2022-12-19T18:46:14.808Z,49.70
2022-12-19T18:48:46.292Z,43.00
2022-12-19T18:51:18.342Z,54.47
2022-12-19T18:53:48.387Z,50.53
2022-12-19T18:56:19.988Z,62.63
2022-12-19T18:58:48.530Z,64.72
2022-12-19T19:01:20.669Z,47.20
2022-12-19T19:03:55.384Z,57.20
2022-12-19T19:06:26.702Z,53.08
2022-12-19T19:08:56.859Z,50.45
2022-12-19T19:11:42.347Z,46.70
2022-12-19T19:14:11.320Z,60.80
2022-12-19T19:16:40.899Z,45.97
2022-12-19T19:19:13.043Z,61.55
2022-12-19T19:21:42.571Z,47.25
2022-12-19T19:24:14.727Z,47.08
2022-12-19T19:26:43.311Z,57.15
2022-12-19T19:29:13.526Z,60.25
2022-12-19T19:31:47.142Z,47.53
2022-12-19T19:34:22.751Z,57.28
2022-12-19T19:36:55.964Z,57.08
2022-12-19T19:39:27.615Z,43.25
2022-12-19T19:41:57.041Z,46.97
2022-12-19T19:44:25.556Z,40.78
2022-12-19T19:46:54.246Z,44.45
2022-12-19T19:49:27.295Z,54.80
2022-12-19T19:52:02.236Z,55.22
2022-12-19T19:54:32.055Z,57.03
2022-12-19T19:57:00.696Z,57.90
2022-12-19T19:59:31.658Z,61.45
2022-12-19T20:02:02.486Z,52.65
2022-12-19T20:04:32.899Z,56.08
2022-12-19T20:07:01.847Z,50.35
2022-12-19T20:09:30.677Z,53.15
2022-12-19T20:12:00.367Z,55.53
2022-12-19T20:14:29.342Z,53.25
2022-12-19T20:16:57.860Z,52.00
2022-12-19T20:19:26.546Z,45.35
2022-12-19T20:21:56.736Z,54.00
2022-12-19T20:24:25.268Z,50.35
2022-12-19T20:26:53.629Z,49.35
2022-12-19T20:29:24.741Z,55.72
2022-12-19T20:31:53.385Z,48.85
2022-12-19T20:34:22.095Z,47.10
2022-12-19T20:36:51.061Z,51.55
2022-12-19T20:39:22.250Z,57.33
2022-12-19T20:41:51.668Z,45.05
2022-12-19T20:44:24.519Z,50.28
2022-12-19T20:46:53.841Z,38.00
2022-12-19T20:49:24.066Z,38.25
2022-12-19T20:51:52.808Z,39.88
2022-12-19T20:54:23.606Z,51.03
2022-12-19T20:56:52.240Z,42.42
2022-12-19T20:59:21.137Z,40.67
2022-12-19T21:01:49.788Z,42.65
2022-12-19T21:04:18.925Z,38.95
2022-12-19T21:06:47.585Z,44.58
2022-12-19T21:09:17.741Z,36.30
2022-12-19T21:11:47.518Z,38.05
2022-12-19T21:14:16.121Z,44.50
2022-12-19T21:16:45.027Z,45.35
2022-12-19T21:19:13.610Z,45.13
2022-12-19T21:21:42.155Z,39.25
2022-12-19T21:24:10.737Z,45.28
2022-12-19T21:26:39.270Z,50.08
2022-12-19T21:29:08.843Z,42.33
2022-12-19T21:31:37.189Z,45.00
2022-12-19T21:34:05.529Z,43.95
2022-12-19T21:36:33.787Z,55.28
2022-12-19T21:39:02.904Z,41.13
2022-12-19T21:41:32.358Z,40.78
2022-12-19T21:44:01.382Z,47.17
2022-12-19T21:46:33.918Z,47.17
2022-12-19T21:49:03.537Z,52.00
2022-12-19T21:51:33.369Z,54.75
2022-12-19T21:54:03.695Z,53.42
2022-12-19T21:56:35.291Z,45.58
2022-12-19T21:59:07.186Z,46.90
2022-12-19T22:01:37.338Z,48.20
2022-12-19T22:04:09.147Z,44.45
2022-12-19T22:06:38.888Z,44.85
2022-12-19T22:09:15.294Z,52.97
2022-12-19T22:11:44.729Z,45.25
2022-12-19T22:14:15.198Z,40.10
2022-12-19T22:16:45.074Z,49.42
2022-12-19T22:19:17.716Z,54.35
2022-12-19T22:21:47.024Z,57.88
2022-12-19T22:24:20.191Z,58.38
2022-12-19T22:26:48.913Z,49.55
2022-12-19T22:29:18.329Z,58.70
2022-12-19T22:31:49.562Z,43.67
2022-12-19T22:34:20.808Z,45.20
2022-12-19T22:36:50.627Z,58.95
2022-12-19T22:39:22.349Z,51.75
2022-12-19T22:41:51.080Z,52.28
2022-12-19T22:44:22.150Z,57.28
2022-12-19T22:46:52.541Z,58.13
2022-12-19T22:49:20.991Z,55.28
2022-12-19T22:51:49.937Z,61.65
2022-12-19T22:54:18.540Z,51.22
2022-12-19T22:56:47.064Z,59.13
2022-12-19T22:59:15.586Z,57.33
2022-12-19T23:01:45.344Z,49.03
2022-12-19T23:04:17.431Z,47.42
2022-12-19T23:06:46.259Z,64.60
2022-12-19T23:09:17.625Z,64.97
2022-12-19T23:11:48.882Z,71.45
2022-12-19T23:14:19.746Z,60.03
2022-12-19T23:16:48.683Z,49.80
2022-12-19T23:19:18.420Z,51.92
2022-12-19T23:21:47.148Z,54.92
2022-12-19T23:24:15.876Z,49.55
2022-12-19T23:26:45.308Z,58.05
2022-12-19T23:29:16.150Z,52.35
2022-12-19T23:31:47.701Z,56.47
2022-12-19T23:34:18.002Z,48.35
2022-12-19T23:39:36.774Z,50.83
2022-12-19T23:42:05.570Z,63.25
2022-12-19T23:44:34.407Z,60.88
2022-12-19T23:47:04.123Z,52.03
2022-12-19T23:49:34.653Z,63.28
2022-12-19T23:52:03.429Z,54.63
2022-12-19T23:54:32.235Z,58.05
2022-12-19T23:57:00.783Z,65.25
2022-12-19T23:59:29.199Z,53.88
